createdAt,value
2017-06-15T00:00:04.697Z,67.10
2017-06-15T00:02:32.150Z,67.10
2017-06-15T00:04:59.602Z,67.20
2017-06-15T00:07:27.065Z,67.50
2017-06-15T00:09:54.505Z,67.60
2017-06-15T00:12:21.948Z,68.10
2017-06-15T00:14:50.157Z,68.50
2017-06-15T00:17:17.613Z,68.50
2017-06-15T00:19:45.059Z,68.80
2017-06-15T00:22:12.510Z,68.70
2017-06-15T00:24:39.962Z,68.30
2017-06-15T00:27:07.414Z,68.60
2017-06-15T00:29:35.621Z,68.30
2017-06-15T00:32:03.061Z,68.10
2017-06-15T00:34:30.510Z,68.20
2017-06-15T00:36:57.948Z,67.60
2017-06-15T00:39:26.162Z,67.60
2017-06-15T00:41:53.614Z,67.40
2017-06-15T00:44:21.062Z,68.20
2017-06-15T00:46:48.505Z,68.60
2017-06-15T00:49:15.953Z,68.50
2017-06-15T00:51:44.179Z,67.90
2017-06-15T00:54:11.645Z,67.80
2017-06-15T00:56:39.093Z,68.10
2017-06-15T00:59:06.570Z,68.10
2017-06-15T01:01:34.020Z,68.30
2017-06-15T01:04:02.284Z,68.30
2017-06-15T01:06:29.727Z,68.50
2017-06-15T01:08:57.170Z,68.50
2017-06-15T01:11:24.628Z,68.50
2017-06-15T01:13:52.069Z,68.70
2017-06-15T01:16:19.526Z,68.80
2017-06-15T01:18:47.734Z,68.90
2017-06-15T01:21:15.181Z,68.80
2017-06-15T01:23:42.636Z,69.00
2017-06-15T01:26:10.082Z,68.80
2017-06-15T01:28:37.538Z,69.00
2017-06-15T01:31:04.999Z,68.90
2017-06-15T01:33:32.437Z,68.50
2017-06-15T01:36:00.649Z,68.10
2017-06-15T01:38:28.090Z,68.10
2017-06-15T01:40:55.542Z,68.30
2017-06-15T01:43:22.989Z,68.50
2017-06-15T01:45:50.450Z,68.60
2017-06-15T01:48:17.911Z,68.80
2017-06-15T01:50:45.369Z,69.00
2017-06-15T01:53:12.814Z,69.20
2017-06-15T01:55:41.030Z,69.10
2017-06-15T01:58:08.478Z,68.90
2017-06-15T02:00:35.916Z,69.40
2017-06-15T02:03:03.365Z,69.30
2017-06-15T02:05:30.811Z,69.30
2017-06-15T02:07:59.042Z,69.80
2017-06-15T02:10:26.486Z,69.70
2017-06-15T02:12:53.941Z,70.10
2017-06-15T02:15:21.397Z,69.90
2017-06-15T02:17:48.837Z,70.10
2017-06-15T02:20:16.307Z,70.40
2017-06-15T02:22:43.753Z,68.80
2017-06-15T02:25:11.200Z,68.70
2017-06-15T02:27:38.647Z,68.50
2017-06-15T02:30:06.866Z,69.10
2017-06-15T02:32:34.305Z,69.10
2017-06-15T02:35:01.753Z,69.40
2017-06-15T02:37:29.213Z,69.70
2017-06-15T02:39:56.667Z,70.00
2017-06-15T02:42:24.110Z,70.20
2017-06-15T02:44:51.557Z,70.60
2017-06-15T02:47:19.797Z,70.50
2017-06-15T02:49:47.246Z,70.50
2017-06-15T02:52:14.693Z,70.30
2017-06-15T02:54:42.158Z,70.20
2017-06-15T02:57:09.617Z,70.00
2017-06-15T02:59:37.058Z,70.10
2017-06-15T03:02:05.453Z,69.50
2017-06-15T03:04:32.893Z,69.70
2017-06-15T03:07:00.361Z,69.90
2017-06-15T03:09:27.808Z,69.70
2017-06-15T03:11:55.262Z,69.80
2017-06-15T03:14:22.732Z,69.90
2017-06-15T03:16:50.185Z,70.00
2017-06-15T03:19:17.642Z,70.20
2017-06-15T03:21:45.101Z,69.80
2017-06-15T03:24:12.556Z,69.30
2017-06-15T03:26:40.014Z,69.90
2017-06-15T03:29:07.465Z,70.50
2017-06-15T03:31:34.910Z,71.00
2017-06-15T03:34:02.357Z,71.20
2017-06-15T03:36:29.817Z,71.10
2017-06-15T03:38:57.265Z,71.50
2017-06-15T03:41:24.718Z,70.50
2017-06-15T03:43:52.933Z,69.20
2017-06-15T03:46:20.382Z,69.10
2017-06-15T03:48:47.825Z,69.20
2017-06-15T03:51:15.265Z,69.40
2017-06-15T03:53:42.733Z,69.70
2017-06-15T03:56:10.179Z,70.10
2017-06-15T03:58:38.397Z,70.30
2017-06-15T04:01:05.841Z,70.30
2017-06-15T04:03:33.289Z,70.50
2017-06-15T04:06:00.743Z,70.90
2017-06-15T04:08:28.202Z,71.20
2017-06-15T04:10:55.640Z,71.30
2017-06-15T04:13:23.085Z,71.10
2017-06-15T04:15:51.318Z,71.30
2017-06-15T04:18:18.766Z,71.20
2017-06-15T04:20:46.234Z,71.30
2017-06-15T04:23:13.686Z,71.40
2017-06-15T04:25:41.158Z,70.90
2017-06-15T04:28:08.621Z,70.60
2017-06-15T04:30:36.075Z,70.20
2017-06-15T04:33:03.530Z,70.00
2017-06-15T04:35:30.973Z,69.60
2017-06-15T04:37:58.442Z,69.60
2017-06-15T04:40:25.881Z,70.00
2017-06-15T04:42:53.331Z,70.30
2017-06-15T04:45:20.793Z,70.60
2017-06-15T04:47:48.271Z,70.40
2017-06-15T04:50:15.738Z,69.70
2017-06-15T04:52:43.182Z,69.80
2017-06-15T04:55:10.631Z,69.40
2017-06-15T04:57:38.082Z,69.00
2017-06-15T05:00:05.538Z,69.20
2017-06-15T05:02:32.986Z,69.60
2017-06-15T05:05:00.435Z,69.40
2017-06-15T05:07:27.885Z,69.30
2017-06-15T05:09:55.326Z,69.20
2017-06-15T05:12:23.545Z,70.00
2017-06-15T05:14:50.986Z,69.90
2017-06-15T05:17:18.450Z,69.80
2017-06-15T05:19:45.906Z,70.10
2017-06-15T05:22:13.369Z,70.20
2017-06-15T05:24:40.813Z,70.40
2017-06-15T05:27:08.270Z,70.20
2017-06-15T05:29:35.729Z,69.60
2017-06-15T05:32:03.207Z,69.70
2017-06-15T05:34:30.669Z,69.60
2017-06-15T05:36:58.125Z,69.70
2017-06-15T05:39:25.580Z,69.80
2017-06-15T05:41:53.037Z,70.50
2017-06-15T05:44:20.495Z,70.90
2017-06-15T05:46:47.951Z,70.30
2017-06-15T05:49:15.417Z,69.80
2017-06-15T05:51:42.873Z,69.10
2017-06-15T05:54:10.325Z,69.20
2017-06-15T05:56:37.781Z,69.10
2017-06-15T05:59:05.237Z,68.90
2017-06-15T06:01:32.694Z,68.90
2017-06-15T06:04:00.157Z,69.00
2017-06-15T06:06:27.615Z,69.00
2017-06-15T06:08:55.062Z,69.60
2017-06-15T06:11:22.513Z,69.20
2017-06-15T06:13:49.970Z,68.50
2017-06-15T06:16:17.438Z,68.10
2017-06-15T06:18:44.885Z,68.30
2017-06-15T06:21:12.341Z,68.70
2017-06-15T06:23:39.793Z,68.40
2017-06-15T06:26:07.272Z,68.80
2017-06-15T06:31:27.664Z,69.00
2017-06-15T06:33:55.160Z,69.60
2017-06-15T06:36:22.654Z,69.00
2017-06-15T06:38:50.132Z,68.20
2017-06-15T06:41:17.600Z,67.70
2017-06-15T06:43:45.084Z,67.60
2017-06-15T06:46:12.562Z,68.10
2017-06-15T06:48:41.485Z,66.80
2017-06-15T06:51:08.957Z,67.50
2017-06-15T06:53:36.448Z,67.70
2017-06-15T06:56:03.924Z,66.40
2017-06-15T06:58:31.439Z,67.10
2017-06-15T07:00:58.915Z,66.70
2017-06-15T07:03:26.406Z,66.40
2017-06-15T07:05:54.667Z,67.90
2017-06-15T07:08:22.155Z,67.90
2017-06-15T07:10:49.653Z,66.10
2017-06-15T07:13:17.164Z,65.90
2017-06-15T07:15:45.432Z,65.50
2017-06-15T07:18:13.713Z,65.00
2017-06-15T07:20:41.968Z,64.70
2017-06-15T07:23:09.437Z,64.60
2017-06-15T07:25:37.692Z,64.60
2017-06-15T07:28:05.174Z,64.60
2017-06-15T07:30:33.463Z,65.70
2017-06-15T07:33:01.713Z,66.10
2017-06-15T07:35:29.192Z,66.00
2017-06-15T07:37:57.437Z,64.90
2017-06-15T07:40:24.908Z,64.90
2017-06-15T07:42:52.401Z,64.60
2017-06-15T07:45:19.880Z,64.50
2017-06-15T07:47:47.376Z,64.90
2017-06-15T07:50:14.860Z,64.70
2017-06-15T07:52:43.108Z,65.40
2017-06-15T07:55:10.586Z,65.30
2017-06-15T07:57:38.868Z,64.60
2017-06-15T08:00:07.110Z,64.70
2017-06-15T08:02:34.619Z,64.70
2017-06-15T08:05:02.107Z,63.60
2017-06-15T08:07:29.596Z,63.60
2017-06-15T08:09:57.097Z,63.00
2017-06-15T08:12:24.568Z,62.40
2017-06-15T08:14:52.076Z,60.70
2017-06-15T08:17:20.332Z,60.60
2017-06-15T08:19:47.844Z,61.10
2017-06-15T08:22:15.333Z,62.70
2017-06-15T08:24:42.837Z,63.60
2017-06-15T08:27:11.076Z,62.50
2017-06-15T08:29:38.567Z,62.30
2017-06-15T08:32:06.816Z,60.60
2017-06-15T08:34:34.291Z,60.60
2017-06-15T08:37:01.768Z,59.10
2017-06-15T08:39:29.249Z,59.00
2017-06-15T08:41:56.742Z,59.20
2017-06-15T08:44:27.177Z,60.20
2017-06-15T08:46:54.669Z,60.10
2017-06-15T08:49:22.927Z,59.80
2017-06-15T08:51:50.425Z,59.80
2017-06-15T08:54:17.904Z,60.00
2017-06-15T08:56:45.410Z,59.40
2017-06-15T08:59:13.657Z,60.00
2017-06-15T09:01:41.149Z,59.70
2017-06-15T09:04:09.408Z,58.80
2017-06-15T09:06:36.875Z,58.70
2017-06-15T09:09:05.157Z,58.10
2017-06-15T09:11:33.399Z,58.40
2017-06-15T09:14:00.895Z,58.30
2017-06-15T09:16:29.157Z,58.50
2017-06-15T09:18:57.397Z,57.90
2017-06-15T09:21:24.877Z,57.60
2017-06-15T09:23:52.361Z,57.30
2017-06-15T09:26:19.839Z,57.80
2017-06-15T09:28:47.312Z,58.40
2017-06-15T09:31:14.792Z,58.30
2017-06-15T09:33:42.296Z,57.00
2017-06-15T09:36:10.532Z,56.80
2017-06-15T09:38:38.037Z,56.80
2017-06-15T09:41:05.527Z,56.40
2017-06-15T09:43:33.026Z,56.50
2017-06-15T09:46:00.496Z,57.80
2017-06-15T09:48:28.737Z,57.00
2017-06-15T09:50:56.209Z,57.00
2017-06-15T09:53:23.694Z,57.90
2017-06-15T09:55:51.201Z,57.30
2017-06-15T09:58:18.671Z,55.70
2017-06-15T10:00:46.160Z,55.90
2017-06-15T10:03:14.399Z,55.90
2017-06-15T10:05:41.895Z,55.90
2017-06-15T10:08:10.137Z,56.40
2017-06-15T10:10:37.654Z,56.30
2017-06-15T10:13:05.128Z,56.30
2017-06-15T10:15:32.625Z,56.20
2017-06-15T10:18:00.082Z,55.80
2017-06-15T10:20:27.553Z,54.40
2017-06-15T10:22:55.807Z,53.00
2017-06-15T10:25:23.279Z,52.90
2017-06-15T10:27:51.532Z,53.70
2017-06-15T10:30:19.003Z,53.10
2017-06-15T10:32:46.496Z,54.60
2017-06-15T10:35:13.964Z,54.80
2017-06-15T10:37:41.465Z,55.00
2017-06-15T10:40:08.947Z,54.80
2017-06-15T10:42:37.777Z,54.80
2017-06-15T10:45:05.259Z,54.80
2017-06-15T10:47:32.739Z,54.70
2017-06-15T10:50:00.228Z,55.50
2017-06-15T10:52:27.719Z,53.20
2017-06-15T10:54:55.201Z,53.80
2017-06-15T10:57:22.668Z,52.60
2017-06-15T10:59:50.147Z,54.50
2017-06-15T11:02:18.381Z,55.20
2017-06-15T11:04:45.857Z,55.10
2017-06-15T11:07:13.346Z,55.40
2017-06-15T11:09:41.608Z,55.90
2017-06-15T11:12:09.870Z,55.20
2017-06-15T11:14:37.385Z,55.20
2017-06-15T11:17:04.869Z,53.80
2017-06-15T11:19:32.339Z,54.40
2017-06-15T11:21:59.836Z,53.60
2017-06-15T11:24:27.286Z,52.70
2017-06-15T11:26:54.788Z,53.30
2017-06-15T11:29:22.258Z,52.80
2017-06-15T11:31:49.731Z,52.80
2017-06-15T11:34:17.201Z,53.10
2017-06-15T11:36:45.467Z,53.00
2017-06-15T11:39:12.949Z,53.00
2017-06-15T11:41:41.212Z,52.80
2017-06-15T11:44:09.490Z,52.60
2017-06-15T11:46:37.719Z,51.90
2017-06-15T11:49:05.220Z,51.70
2017-06-15T11:51:33.456Z,51.80
2017-06-15T11:54:00.943Z,52.30
2017-06-15T11:56:28.411Z,52.30
2017-06-15T11:58:55.883Z,52.00
2017-06-15T12:01:24.121Z,51.70
2017-06-15T12:03:51.607Z,51.70
2017-06-15T12:06:19.089Z,51.30
2017-06-15T12:08:46.567Z,50.90
2017-06-15T12:11:14.043Z,51.10
2017-06-15T12:13:41.520Z,51.00
2017-06-15T12:16:08.992Z,51.30
2017-06-15T12:18:37.262Z,50.40
2017-06-15T12:21:05.500Z,50.40
2017-06-15T12:23:32.976Z,50.40
2017-06-15T12:26:00.560Z,50.80
2017-06-15T12:28:28.818Z,51.60
2017-06-15T12:30:56.293Z,51.50
2017-06-15T12:33:24.528Z,49.50
2017-06-15T12:35:52.011Z,49.30
2017-06-15T12:38:19.488Z,49.00
2017-06-15T12:40:47.741Z,49.60
2017-06-15T12:43:15.204Z,49.60
2017-06-15T12:45:42.692Z,48.50
2017-06-15T12:48:10.183Z,49.20
2017-06-15T12:50:37.656Z,49.90
2017-06-15T12:53:05.119Z,48.10
2017-06-15T12:55:32.624Z,47.70
2017-06-15T12:58:00.098Z,47.80
2017-06-15T13:00:27.560Z,47.80
2017-06-15T13:02:55.040Z,46.70
2017-06-15T13:05:22.515Z,46.30
2017-06-15T13:07:50.015Z,46.90
2017-06-15T13:10:17.473Z,47.30
2017-06-15T13:12:44.959Z,46.70
2017-06-15T13:15:12.440Z,46.70
2017-06-15T13:17:39.921Z,45.30
2017-06-15T13:20:08.160Z,45.30
2017-06-15T13:22:35.649Z,44.60
2017-06-15T13:25:03.120Z,44.00
2017-06-15T13:27:31.381Z,43.20
2017-06-15T13:29:58.857Z,43.20
2017-06-15T13:32:27.099Z,44.20
2017-06-15T13:34:54.565Z,44.10
2017-06-15T13:37:22.044Z,42.40
2017-06-15T13:39:50.290Z,42.70
2017-06-15T13:42:17.747Z,42.60
2017-06-15T13:44:45.236Z,41.40
2017-06-15T13:47:13.468Z,40.00
2017-06-15T13:49:40.953Z,40.00
2017-06-15T13:52:08.421Z,40.30
2017-06-15T13:54:36.659Z,41.50
2017-06-15T13:57:04.132Z,41.50
2017-06-15T13:59:31.617Z,40.70
2017-06-15T14:01:59.848Z,39.70
2017-06-15T14:04:27.343Z,39.70
2017-06-15T14:06:55.584Z,39.00
2017-06-15T14:09:23.047Z,38.80
2017-06-15T14:11:50.524Z,38.10
2017-06-15T14:14:17.992Z,40.00
2017-06-15T14:16:46.240Z,38.70
2017-06-15T14:19:13.703Z,38.70
2017-06-15T14:21:41.181Z,38.60
2017-06-15T14:24:09.412Z,38.90
2017-06-15T14:26:36.892Z,38.30
2017-06-15T14:29:04.348Z,38.40
2017-06-15T14:31:31.840Z,40.00
2017-06-15T14:34:00.097Z,38.20
2017-06-15T14:36:27.577Z,38.20
2017-06-15T14:38:55.844Z,35.80
2017-06-15T14:41:24.115Z,39.10
2017-06-15T14:43:52.350Z,39.60
2017-06-15T14:46:19.811Z,39.60
2017-06-15T14:48:47.308Z,39.20
2017-06-15T14:51:15.531Z,40.00
2017-06-15T14:53:43.009Z,39.60
2017-06-15T14:56:10.478Z,39.50
2017-06-15T14:58:37.972Z,39.50
2017-06-15T15:01:05.438Z,39.20
2017-06-15T15:03:32.933Z,39.70
2017-06-15T15:06:00.400Z,39.70
2017-06-15T15:08:39.720Z,39.70
2017-06-15T15:11:07.187Z,39.70
2017-06-15T15:13:34.673Z,39.80
2017-06-15T15:16:02.141Z,39.00
2017-06-15T15:18:30.405Z,39.70
2017-06-15T15:20:58.647Z,40.70
2017-06-15T15:23:26.114Z,40.60
2017-06-15T15:25:53.695Z,40.00
2017-06-15T15:28:21.155Z,41.00
2017-06-15T15:30:49.057Z,42.60
2017-06-15T15:33:16.517Z,42.30
2017-06-15T15:35:43.995Z,42.60
2017-06-15T15:38:11.456Z,42.90
2017-06-15T15:40:38.952Z,43.30
2017-06-15T15:43:06.436Z,44.30
2017-06-15T15:45:33.913Z,45.50
2017-06-15T15:48:01.391Z,45.40
2017-06-15T15:50:28.865Z,45.90
2017-06-15T15:52:56.347Z,46.50
2017-06-15T15:55:24.579Z,47.80
2017-06-15T15:57:52.056Z,47.70
2017-06-15T16:00:19.534Z,47.90
2017-06-15T16:02:47.779Z,48.90
2017-06-15T16:05:15.324Z,48.90
2017-06-15T16:07:42.800Z,49.70
2017-06-15T16:10:10.288Z,50.10
2017-06-15T16:12:38.527Z,51.20
2017-06-15T16:15:05.988Z,51.10
2017-06-15T16:17:33.480Z,51.20
2017-06-15T16:20:01.722Z,51.80
2017-06-15T16:22:29.199Z,51.80
2017-06-15T16:24:56.668Z,52.20
2017-06-15T16:27:24.952Z,52.40
2017-06-15T16:29:53.188Z,52.90
2017-06-15T16:32:20.665Z,52.70
2017-06-15T16:34:48.152Z,52.90
2017-06-15T16:37:15.625Z,53.40
2017-06-15T16:39:56.096Z,53.20
2017-06-15T16:42:23.560Z,53.50
2017-06-15T16:44:51.035Z,53.90
2017-06-15T16:47:18.495Z,53.90
2017-06-15T16:49:45.966Z,53.70
2017-06-15T16:52:13.458Z,54.20
2017-06-15T16:54:41.721Z,55.20
2017-06-15T16:57:09.944Z,55.40
2017-06-15T16:59:37.435Z,55.00
2017-06-15T17:02:11.472Z,55.50
2017-06-15T17:04:39.742Z,55.90
2017-06-15T17:07:07.204Z,55.90
2017-06-15T17:09:35.456Z,56.30
2017-06-15T17:12:02.944Z,56.30
2017-06-15T17:14:31.212Z,56.60
2017-06-15T17:16:59.465Z,56.90
2017-06-15T17:19:26.940Z,56.80
2017-06-15T17:21:55.218Z,57.60
2017-06-15T17:27:16.587Z,57.40
2017-06-15T17:29:44.069Z,58.00
2017-06-15T17:32:11.562Z,58.20
2017-06-15T17:34:39.795Z,58.60
2017-06-15T17:37:07.297Z,58.60
2017-06-15T17:39:35.535Z,59.60
2017-06-15T17:42:03.012Z,59.50
2017-06-15T17:44:30.480Z,60.20
2017-06-15T17:46:58.742Z,62.30
2017-06-15T17:49:26.317Z,62.30
2017-06-15T17:51:54.583Z,65.30
2017-06-15T17:54:22.056Z,64.70
2017-06-15T17:56:50.298Z,69.10
2017-06-15T17:59:17.776Z,69.10
2017-06-15T18:01:45.232Z,71.90
2017-06-15T18:04:12.740Z,73.40
2017-06-15T18:06:40.210Z,71.90
2017-06-15T18:09:07.703Z,77.90
2017-06-15T18:11:35.182Z,77.30
2017-06-15T18:14:03.441Z,79.30
2017-06-15T18:16:30.925Z,79.00
2017-06-15T18:18:59.192Z,82.60
2017-06-15T18:21:27.425Z,82.10
2017-06-15T18:23:54.946Z,82.50
2017-06-15T18:26:22.415Z,82.90
2017-06-15T18:28:49.887Z,81.40
2017-06-15T18:31:17.389Z,88.40
2017-06-15T18:33:44.862Z,84.30
2017-06-15T18:36:13.128Z,86.40
2017-06-15T18:38:40.597Z,86.60
2017-06-15T18:41:08.842Z,85.90
2017-06-15T18:43:36.308Z,85.90
2017-06-15T18:46:04.704Z,86.00
2017-06-15T18:48:33.771Z,84.60
2017-06-15T18:51:01.369Z,84.40
2017-06-15T18:53:28.840Z,86.00
2017-06-15T18:55:56.335Z,85.90
2017-06-15T18:58:23.800Z,90.70
2017-06-15T19:00:51.382Z,85.80
2017-06-15T19:03:18.858Z,85.40
2017-06-15T19:05:47.104Z,83.60
2017-06-15T19:08:14.603Z,83.50
2017-06-15T19:10:42.077Z,83.70
2017-06-15T19:13:09.572Z,81.10
2017-06-15T19:15:37.039Z,78.60
2017-06-15T19:18:04.520Z,79.00
2017-06-15T19:20:32.752Z,75.40
2017-06-15T19:23:00.245Z,75.10
2017-06-15T19:25:28.470Z,74.80
2017-06-15T19:27:55.950Z,74.80
2017-06-15T19:30:23.421Z,75.80
2017-06-15T19:32:50.883Z,75.00
2017-06-15T19:35:18.677Z,74.40
2017-06-15T19:37:46.187Z,74.60
2017-06-15T19:40:13.667Z,72.20
2017-06-15T19:42:41.128Z,72.20
2017-06-15T19:45:09.377Z,73.00
2017-06-15T19:47:36.842Z,73.00
2017-06-15T19:50:04.331Z,71.90
2017-06-15T19:52:32.563Z,72.80
2017-06-15T19:55:00.041Z,72.80
2017-06-15T19:57:27.520Z,73.20
2017-06-15T19:59:55.771Z,73.30
2017-06-15T20:02:23.235Z,73.20
2017-06-15T20:04:50.718Z,73.80
2017-06-15T20:07:21.410Z,73.50
2017-06-15T20:09:48.931Z,74.90
2017-06-15T20:12:16.440Z,74.50
2017-06-15T20:14:43.910Z,74.30
2017-06-15T20:17:12.164Z,75.20
2017-06-15T20:19:39.656Z,75.10
2017-06-15T20:22:07.904Z,75.40
2017-06-15T20:24:41.196Z,74.70
2017-06-15T20:27:09.652Z,75.30
2017-06-15T20:29:37.126Z,74.50
2017-06-15T20:32:04.609Z,75.20
2017-06-15T20:34:32.855Z,75.00
2017-06-15T20:37:00.342Z,74.90
2017-06-15T20:39:28.568Z,75.60
2017-06-15T20:41:56.061Z,75.60
2017-06-15T20:44:23.534Z,75.90
2017-06-15T20:46:51.766Z,76.40
2017-06-15T20:49:19.282Z,75.70
2017-06-15T20:51:46.774Z,75.70
2017-06-15T20:54:14.244Z,76.60
2017-06-15T20:56:41.703Z,77.20
2017-06-15T20:59:09.197Z,77.00
2017-06-15T21:01:37.417Z,77.90
2017-06-15T21:04:04.888Z,78.30
2017-06-15T21:06:32.360Z,79.10
2017-06-15T21:08:59.860Z,81.50
2017-06-15T21:11:27.330Z,81.70
2017-06-15T21:13:54.803Z,81.20
2017-06-15T21:16:22.268Z,81.20
2017-06-15T21:18:49.747Z,80.90
2017-06-15T21:21:18.456Z,80.70
2017-06-15T21:23:46.728Z,81.20
2017-06-15T21:26:14.202Z,81.00
2017-06-15T21:28:42.432Z,80.00
2017-06-15T21:31:09.916Z,79.90
2017-06-15T21:33:37.384Z,80.10
2017-06-15T21:36:05.643Z,81.00
2017-06-15T21:38:33.108Z,80.90
2017-06-15T21:41:06.502Z,81.20
2017-06-15T21:43:33.967Z,81.10
2017-06-15T21:46:02.224Z,81.00
2017-06-15T21:48:29.697Z,80.80
2017-06-15T21:50:57.191Z,80.80
2017-06-15T21:53:24.652Z,81.00
2017-06-15T21:55:52.126Z,80.90
2017-06-15T21:58:19.596Z,80.90
2017-06-15T22:00:47.082Z,80.30
2017-06-15T22:03:14.567Z,80.90
2017-06-15T22:05:42.789Z,81.50
2017-06-15T22:08:10.277Z,81.50
2017-06-15T22:10:37.843Z,81.20
2017-06-15T22:13:06.108Z,81.50
2017-06-15T22:15:33.575Z,81.00
2017-06-15T22:18:01.849Z,81.30
2017-06-15T22:20:30.087Z,81.50
2017-06-15T22:22:57.575Z,81.40
2017-06-15T22:25:25.036Z,81.20
2017-06-15T22:27:52.504Z,81.20
2017-06-15T22:30:20.000Z,81.00
2017-06-15T22:32:47.456Z,81.50
2017-06-15T22:35:14.968Z,81.20
2017-06-15T22:37:42.432Z,80.80
2017-06-15T22:40:10.672Z,81.00
2017-06-15T22:42:38.172Z,80.90
2017-06-15T22:45:06.432Z,82.20
2017-06-15T22:47:33.888Z,82.10
2017-06-15T22:50:01.384Z,82.20
2017-06-15T22:52:28.851Z,82.10
2017-06-15T22:54:56.345Z,82.10
2017-06-15T22:57:23.832Z,81.90
2017-06-15T22:59:52.063Z,81.40
2017-06-15T23:02:41.120Z,81.40
2017-06-15T23:05:08.616Z,81.50
2017-06-15T23:07:36.100Z,81.60
2017-06-15T23:10:04.358Z,81.50
2017-06-15T23:12:32.613Z,81.60
2017-06-15T23:15:00.078Z,81.60
2017-06-15T23:17:27.556Z,81.50
2017-06-15T23:19:55.796Z,82.20
2017-06-15T23:22:23.273Z,82.00
2017-06-15T23:24:50.731Z,82.60
2017-06-15T23:27:18.227Z,82.40
2017-06-15T23:29:45.705Z,82.60
2017-06-15T23:32:13.194Z,82.90
2017-06-15T23:34:47.769Z,83.50
2017-06-15T23:37:15.264Z,83.80
2017-06-15T23:39:42.730Z,84.20
2017-06-15T23:42:10.227Z,84.40
2017-06-15T23:44:37.689Z,84.40
2017-06-15T23:47:05.177Z,84.20
2017-06-15T23:49:32.660Z,83.40
2017-06-15T23:52:00.123Z,82.70
2017-06-15T23:54:27.620Z,82.90
2017-06-15T23:56:55.101Z,83.10
2017-06-15T23:59:22.596Z,83.20
